Time;durP1;ratioP1;P1;durP2;ratioP2;P2;SDS_P1;SDS_P2;PMS_P1;PMS_P2;Temp;Humidity;BMP_temperature;BMP_pressure;BME280_temperature;BME280_humidity;BME280_pressure;Samples;Min_cycle;Max_cycle;Signal;HPM_P1;HPM_P2
2023/06/11 00:00:20;;;;;;;;;;;;;;;21.45;29.99;97186.03;5078516;28;1964;-76
2023/06/11 00:02:46;;;;;;;;;;;;;;;21.57;29.82;97176.69;5056499;28;1902;-77
2023/06/11 00:05:12;;;;;;;;;;;;;;;21.81;29.46;97180.56;5041045;28;922;-77
2023/06/11 00:07:37;;;;;;;;;;;;;;;21.65;30.01;97183.63;5057672;28;1181;-77
2023/06/11 00:10:03;;;;;;;;;;;;;;;22.16;30.13;97183.22;5024028;28;1698;-76
2023/06/11 00:12:29;;;;;;;;;;;;;;;22.50;29.79;97172.88;5024311;28;977;-77
2023/06/11 00:14:55;;;;;;;;;;;;;;;22.50;30.04;97172.88;5023714;28;1425;-77
2023/06/11 00:17:20;;;;;;;;;;;;;;;22.11;30.43;97169.66;5040863;28;1649;-77
2023/06/11 00:19:47;;;;;;;;;;;;;;;21.94;30.73;97182.50;5017225;28;1019;-77
2023/06/11 00:22:14;;;;;;;;;;;;;;;21.70;30.94;97179.41;4985233;28;1883;-77
2023/06/11 00:24:40;;;;;;;;;;;;;;;21.68;30.87;97168.56;5001139;28;1450;-76
2023/06/11 00:27:06;;;;;;;;;;;;;;;21.65;30.92;97175.13;4961908;28;1167;-77
2023/06/11 00:29:32;;;;;;;;;;;;;;;21.72;30.93;97177.69;4962207;28;1211;-77
2023/06/11 00:31:57;;;;;;;;;;;;;;;21.69;30.97;97177.84;4961324;28;1983;-77
2023/06/11 00:34:23;;;;;;;;;;;;;;;21.58;31.25;97172.59;4962126;28;1023;-76
2023/06/11 00:36:48;;;;;;;;;;;;;;;21.74;30.65;97169.53;4946275;28;1213;-77
2023/06/11 00:39:14;;;;;;;;;;;;;;;21.72;30.82;97171.25;4977933;28;1017;-77
2023/06/11 00:41:45;;;;;;;;;;;;;;;21.68;30.75;97165.72;4978124;28;1120;-77
2023/06/11 00:44:17;;;;;;;;;;;;;;;21.49;31.27;97169.72;4961857;28;1895;-77
2023/06/11 00:46:47;;;;;;;;;;;;;;;21.81;30.38;97174.91;4976828;28;1986;-76
2023/06/11 00:49:13;;;;;;;;;;;;;;;21.99;30.26;97185.50;4977689;28;981;-77
2023/06/11 00:51:44;;;;;;;;;;;;;;;21.97;30.32;97181.56;4961908;28;1497;-77
2023/06/11 00:54:12;;;;;;;;;;;;;;;22.21;30.17;97174.09;4977921;28;883;-76
2023/06/11 00:56:39;;;;;;;;;;;;;;;22.03;30.45;97176.88;4939624;29;1010;-77
2023/06/11 00:59:06;;;;;;;;;;;;;;;22.30;30.15;97193.94;4954699;29;1108;-76
2023/06/11 01:01:33;;;;;;;;;;;;;;;21.99;30.94;97188.34;4938201;29;1719;-76
2023/06/11 01:04:00;;;;;;;;;;;;;;;22.01;30.77;97187.84;4939240;29;1981;-77
2023/06/11 01:06:28;;;;;;;;;;;;;;;21.96;30.93;97186.44;4923753;29;953;-77
2023/06/11 01:08:57;;;;;;;;;;;;;;;22.05;30.58;97182.84;4954951;29;1155;-77
2023/06/11 01:11:32;;;;;;;;;;;;;;;22.02;30.72;97192.25;4955263;29;1284;-77
2023/06/11 01:14:02;;;;;;;;;;;;;;;21.82;31.47;97190.63;4939503;29;1196;-77
2023/06/11 01:16:34;;;;;;;;;;;;;;;21.83;31.48;97189.38;4937823;29;1755;-77
2023/06/11 01:19:03;;;;;;;;;;;;;;;21.97;31.19;97190.06;4932259;29;1277;-77
2023/06/11 01:21:34;;;;;;;;;;;;;;;21.97;31.22;97184.41;4971122;28;1122;-77
2023/06/11 01:24:17;;;;;;;;;;;;;;;22.27;30.76;97189.22;4980661;28;1911;-77
2023/06/11 01:26:43;;;;;;;;;;;;;;;22.03;30.96;97186.16;5005202;28;1196;-77
2023/06/11 01:29:11;;;;;;;;;;;;;;;22.18;30.73;97192.03;5072300;28;1078;-77
2023/06/11 01:31:40;;;;;;;;;;;;;;;22.08;30.82;97187.59;5042823;28;1714;-77
2023/06/11 01:34:08;;;;;;;;;;;;;;;21.99;31.16;97184.72;5032431;28;1166;-76
2023/06/11 01:36:36;;;;;;;;;;;;;;;21.91;31.27;97197.56;5010596;28;1081;-77
2023/06/11 01:39:04;;;;;;;;;;;;;;;22.18;30.78;97191.25;5019462;28;1099;-77
2023/06/11 01:41:40;;;;;;;;;;;;;;;21.81;31.48;97196.75;5052337;28;1319;-77
2023/06/11 01:44:06;;;;;;;;;;;;;;;21.90;31.26;97204.50;5019233;28;1910;-77
2023/06/11 01:46:32;;;;;;;;;;;;;;;21.83;31.74;97199.91;5015162;28;1303;-77
2023/06/11 01:48:58;;;;;;;;;;;;;;;22.02;31.51;97200.75;4996145;28;1147;-77
2023/06/11 01:51:25;;;;;;;;;;;;;;;22.08;31.23;97215.91;4997225;28;1209;-77
2023/06/11 01:53:51;;;;;;;;;;;;;;;22.05;31.32;97211.16;4979912;28;1196;-77
2023/06/11 01:56:16;;;;;;;;;;;;;;;22.18;31.18;97217.53;4976827;28;1112;-77
2023/06/11 01:58:45;;;;;;;;;;;;;;;22.17;31.32;97212.31;4960631;28;1142;-77
2023/06/11 02:01:12;;;;;;;;;;;;;;;22.06;31.41;97212.75;4959502;28;1770;-77
2023/06/11 02:03:39;;;;;;;;;;;;;;;22.01;31.52;97211.31;4959822;28;1903;-77
2023/06/11 02:06:05;;;;;;;;;;;;;;;22.09;31.53;97217.47;4977421;28;1238;-77
2023/06/11 02:08:31;;;;;;;;;;;;;;;22.24;31.15;97218.50;4965972;28;1120;-77
2023/06/11 02:10:57;;;;;;;;;;;;;;;22.06;31.27;97218.41;4977153;28;1119;-76
2023/06/11 02:13:25;;;;;;;;;;;;;;;22.02;31.38;97214.91;4976130;28;1021;-77
2023/06/11 02:15:51;;;;;;;;;;;;;;;22.18;30.91;97214.72;4969026;28;1697;-77
2023/06/11 02:18:16;;;;;;;;;;;;;;;22.25;30.86;97211.56;4979242;28;1125;-77
2023/06/11 02:20:42;;;;;;;;;;;;;;;22.22;31.18;97217.38;4996566;28;1195;-77
2023/06/11 02:23:08;;;;;;;;;;;;;;;22.02;31.53;97217.75;4995915;28;1969;-77
2023/06/11 02:25:33;;;;;;;;;;;;;;;21.91;31.78;97218.19;4993574;28;1008;-77
2023/06/11 02:27:59;;;;;;;;;;;;;;;22.05;31.18;97228.16;4976241;28;1255;-77
2023/06/11 02:30:26;;;;;;;;;;;;;;;22.11;31.51;97226.31;4959602;28;1951;-77
2023/06/11 02:32:52;;;;;;;;;;;;;;;22.16;31.32;97222.88;4956865;28;1562;-77
2023/06/11 02:35:18;;;;;;;;;;;;;;;21.91;31.59;97221.03;4956866;28;1143;-77
2023/06/11 02:37:43;;;;;;;;;;;;;;;21.91;31.88;97223.06;4957284;28;1309;-77
2023/06/11 02:40:09;;;;;;;;;;;;;;;22.36;31.38;97226.06;5133729;22;3924;-77
2023/06/11 02:42:35;;;;;;;;;;;;;;;22.77;32.36;97221.09;5005942;28;1972;-77
2023/06/11 02:45:01;;;;;;;;;;;;;;;22.47;32.42;97224.84;5035674;28;1287;-77
2023/06/11 02:47:27;;;;;;;;;;;;;;;22.48;31.79;97227.19;5036983;28;990;-77
2023/06/11 02:49:52;;;;;;;;;;;;;;;22.31;31.60;97226.69;5019694;28;1189;-77
2023/06/11 02:52:18;;;;;;;;;;;;;;;22.14;31.56;97224.63;5036793;28;1003;-77
2023/06/11 02:54:44;;;;;;;;;;;;;;;22.30;30.92;97224.34;5032979;28;1376;-77
2023/06/11 02:57:10;;;;;;;;;;;;;;;22.10;30.92;97227.56;5023788;28;1437;-77
2023/06/11 02:59:35;;;;;;;;;;;;;;;22.11;30.89;97226.31;5022283;28;1735;-77
2023/06/11 03:02:01;;;;;;;;;;;;;;;22.14;30.54;97219.72;5040346;28;1154;-77
2023/06/11 03:04:26;;;;;;;;;;;;;;;22.04;30.57;97220.94;5023497;28;1997;-76
2023/06/11 03:06:53;;;;;;;;;;;;;;;22.02;30.17;97227.06;5024189;28;1116;-76
2023/06/11 03:09:19;;;;;;;;;;;;;;;21.93;30.47;97226.25;5023282;28;1146;-77
2023/06/11 03:11:44;;;;;;;;;;;;;;;21.91;30.16;97223.84;4986477;28;1300;-76
2023/06/11 03:14:10;;;;;;;;;;;;;;;22.10;29.91;97233.22;4994796;28;1298;-77
2023/06/11 03:16:36;;;;;;;;;;;;;;;21.77;30.24;97224.44;4999794;28;1177;-77
2023/06/11 03:19:01;;;;;;;;;;;;;;;21.81;30.08;97231.56;4988103;28;1512;-78
2023/06/11 03:21:27;;;;;;;;;;;;;;;22.05;29.48;97228.16;4999512;28;1191;-77
2023/06/11 03:23:53;;;;;;;;;;;;;;;21.84;29.80;97236.25;4982799;28;1910;-76
2023/06/11 03:26:20;;;;;;;;;;;;;;;21.71;29.55;97232.75;4983478;28;1247;-77
2023/06/11 03:28:46;;;;;;;;;;;;;;;21.84;29.65;97229.81;4950360;28;1176;-77
2023/06/11 03:31:12;;;;;;;;;;;;;;;21.89;29.47;97234.09;4999094;28;1116;-76
2023/06/11 03:33:38;;;;;;;;;;;;;;;21.93;29.34;97232.69;4965737;28;1413;-76
2023/06/11 03:36:04;;;;;;;;;;;;;;;22.07;28.86;97231.31;4951108;28;1233;-77
2023/06/11 03:38:30;;;;;;;;;;;;;;;21.81;29.25;97228.72;4966199;28;1246;-77
2023/06/11 03:40:56;;;;;;;;;;;;;;;21.67;29.47;97243.44;4944203;29;1327;-77
2023/06/11 03:43:26;;;;;;;;;;;;;;;21.72;29.15;97245.66;4974112;28;1910;-76
2023/06/11 03:45:52;;;;;;;;;;;;;;;21.79;28.93;97238.91;5002259;28;1271;-77
2023/06/11 03:48:17;;;;;;;;;;;;;;;21.73;29.21;97241.56;4984885;28;1536;-77
2023/06/11 03:50:44;;;;;;;;;;;;;;;21.75;28.93;97250.38;4991752;28;1505;-77
2023/06/11 03:53:09;;;;;;;;;;;;;;;22.08;28.39;97255.56;4965914;28;1062;-77
2023/06/11 03:55:35;;;;;;;;;;;;;;;21.87;28.57;97245.09;4967622;28;1259;-77
2023/06/11 03:58:01;;;;;;;;;;;;;;;21.97;28.39;97243.88;4966149;28;1127;-77
2023/06/11 04:00:30;;;;;;;;;;;;;;;21.77;28.58;97253.53;4998988;28;1079;-77
2023/06/11 04:02:57;;;;;;;;;;;;;;;21.91;28.19;97242.91;4950823;28;1971;-77
2023/06/11 04:05:25;;;;;;;;;;;;;;;22.26;28.55;97247.16;4981185;28;1724;-77
2023/06/11 04:07:55;;;;;;;;;;;;;;;22.40;28.98;97248.63;4970078;28;1188;-76
2023/06/11 04:10:22;;;;;;;;;;;;;;;22.47;29.18;97264.53;5000986;28;1242;-77
2023/06/11 04:12:48;;;;;;;;;;;;;;;22.28;29.88;97258.81;5001486;28;1147;-77
2023/06/11 04:15:14;;;;;;;;;;;;;;;22.33;29.68;97266.72;4985289;28;1175;-77
2023/06/11 04:17:39;;;;;;;;;;;;;;;22.06;29.24;97258.06;4991060;28;1296;-76
2023/06/11 04:20:05;;;;;;;;;;;;;;;22.18;29.04;97262.09;5038270;28;1031;-77
2023/06/11 04:22:31;;;;;;;;;;;;;;;21.96;29.20;97253.63;5038434;28;1875;-77
2023/06/11 04:24:57;;;;;;;;;;;;;;;22.03;29.03;97254.13;5021993;28;1096;-76
2023/06/11 04:27:23;;;;;;;;;;;;;;;21.73;29.04;97252.88;5017661;28;1160;-77
2023/06/11 04:29:52;;;;;;;;;;;;;;;21.74;29.01;97260.13;5001215;28;1256;-77
2023/06/11 04:32:20;;;;;;;;;;;;;;;21.64;29.13;97254.88;5001319;28;1183;-76
2023/06/11 04:34:48;;;;;;;;;;;;;;;21.66;29.08;97263.69;4978080;28;1386;-77
2023/06/11 04:37:16;;;;;;;;;;;;;;;21.63;29.08;97254.09;4962643;28;1117;-77
2023/06/11 04:39:42;;;;;;;;;;;;;;;21.72;28.65;97262.66;4945894;28;1309;-76
2023/06/11 04:42:09;;;;;;;;;;;;;;;21.65;28.93;97253.63;4962312;28;1247;-77
2023/06/11 04:44:36;;;;;;;;;;;;;;;21.75;28.62;97258.88;4961678;28;1926;-77
2023/06/11 04:47:05;;;;;;;;;;;;;;;21.78;28.40;97260.78;4978516;28;972;-77
2023/06/11 04:49:32;;;;;;;;;;;;;;;21.62;28.57;97258.19;4946350;28;1236;-77
2023/06/11 04:51:58;;;;;;;;;;;;;;;21.67;28.70;97254.75;4962306;28;1168;-77
2023/06/11 04:54:24;;;;;;;;;;;;;;;22.25;28.33;97259.75;4945681;28;1226;-77
2023/06/11 04:56:50;;;;;;;;;;;;;;;22.26;28.57;97266.19;4962364;28;1171;-77
2023/06/11 04:59:16;;;;;;;;;;;;;;;22.24;28.75;97274.41;4926459;29;1303;-77
2023/06/11 05:01:53;;;;;;;;;;;;;;;22.28;28.45;97275.81;4942892;29;1152;-77
2023/06/11 05:04:21;;;;;;;;;;;;;;;22.35;28.13;97281.19;4942246;29;1958;-77
2023/06/11 05:06:47;;;;;;;;;;;;;;;22.01;28.59;97281.34;4904852;29;1221;-76
2023/06/11 05:09:16;;;;;;;;;;;;;;;21.84;28.55;97286.44;4867598;29;1126;-77
2023/06/11 05:11:44;;;;;;;;;;;;;;;22.06;28.11;97286.41;4879442;29;1189;-76
2023/06/11 05:14:13;;;;;;;;;;;;;;;21.66;28.83;97281.50;4904569;29;1113;-77
2023/06/11 05:16:40;;;;;;;;;;;;;;;21.52;28.87;97279.97;4888762;29;1257;-77
2023/06/11 05:19:06;;;;;;;;;;;;;;;21.82;28.33;97283.31;4888703;29;1142;-77
2023/06/11 05:21:34;;;;;;;;;;;;;;;21.65;28.63;97285.56;4888981;29;1209;-76
2023/06/11 05:24:07;;;;;;;;;;;;;;;21.76;28.54;97290.81;4882355;29;1918;-77
2023/06/11 05:26:36;;;;;;;;;;;;;;;21.64;28.53;97289.63;4868300;29;1105;-77
2023/06/11 05:29:06;;;;;;;;;;;;;;;21.39;28.92;97284.13;4863448;29;1340;-77
2023/06/11 05:31:35;;;;;;;;;;;;;;;21.66;28.59;97292.00;4881899;29;1304;-77
2023/06/11 05:34:03;;;;;;;;;;;;;;;21.56;28.99;97294.00;4867340;29;1107;-77
2023/06/11 05:36:29;;;;;;;;;;;;;;;21.60;28.78;97286.16;4867529;29;1068;-77
2023/06/11 05:38:55;;;;;;;;;;;;;;;22.04;28.49;97288.91;4902939;29;1607;-77
2023/06/11 05:41:21;;;;;;;;;;;;;;;22.22;28.20;97291.84;4904125;29;1226;-77
2023/06/11 05:43:47;;;;;;;;;;;;;;;22.43;28.15;97300.72;4919237;29;1977;-76
2023/06/11 05:46:13;;;;;;;;;;;;;;;22.33;28.13;97295.06;4941615;28;1252;-77
2023/06/11 05:48:39;;;;;;;;;;;;;;;22.17;28.31;97303.78;4906194;29;1649;-77
2023/06/11 05:51:05;;;;;;;;;;;;;;;21.97;28.41;97300.53;4923182;29;1206;-77
2023/06/11 05:53:31;;;;;;;;;;;;;;;21.92;28.46;97301.16;4922183;29;1482;-77
2023/06/11 05:56:04;;;;;;;;;;;;;;;21.94;28.57;97305.06;4923077;29;1312;-76
2023/06/11 05:58:33;;;;;;;;;;;;;;;21.71;28.47;97300.72;4938032;29;1321;-77
2023/06/11 06:01:02;;;;;;;;;;;;;;;21.79;28.63;97313.31;4946788;28;1305;-77
2023/06/11 06:03:31;;;;;;;;;;;;;;;21.89;28.27;97316.22;4965590;28;1982;-77
2023/06/11 06:06:01;;;;;;;;;;;;;;;21.76;28.26;97319.94;4961104;28;1538;-77
2023/06/11 06:08:27;;;;;;;;;;;;;;;21.79;28.50;97313.31;4944570;28;1163;-77
2023/06/11 06:10:53;;;;;;;;;;;;;;;21.62;28.42;97320.47;4922541;29;1073;-77
2023/06/11 06:13:19;;;;;;;;;;;;;;;21.74;28.65;97328.09;4937985;29;1245;-77
2023/06/11 06:15:45;;;;;;;;;;;;;;;21.79;28.44;97321.81;4916391;28;1417;-77
2023/06/11 06:18:11;;;;;;;;;;;;;;;21.68;28.47;97317.81;4960531;28;1153;-77
2023/06/11 06:20:40;;;;;;;;;;;;;;;22.23;27.97;97324.63;4945866;28;1141;-77
2023/06/11 06:23:06;;;;;;;;;;;;;;;22.24;27.94;97334.69;4960505;28;1915;-77
2023/06/11 06:25:37;;;;;;;;;;;;;;;22.16;28.10;97336.22;4961213;28;1177;-77
2023/06/11 06:28:08;;;;;;;;;;;;;;;22.02;28.28;97331.06;4944744;28;1128;-77
2023/06/11 06:30:34;;;;;;;;;;;;;;;21.93;28.38;97333.88;4929527;28;1125;-77
2023/06/11 06:33:00;;;;;;;;;;;;;;;21.81;28.38;97333.50;4947273;28;1138;-77
2023/06/11 06:35:29;;;;;;;;;;;;;;;21.67;28.67;97330.41;4922964;29;1114;-77
2023/06/11 06:37:54;;;;;;;;;;;;;;;22.00;28.23;97325.09;4908624;29;1162;-77
2023/06/11 06:40:20;;;;;;;;;;;;;;;21.94;28.33;97329.78;4925644;29;1531;-77
2023/06/11 06:42:46;;;;;;;;;;;;;;;21.98;28.03;97333.28;4904157;29;1977;-77
2023/06/11 06:45:16;;;;;;;;;;;;;;;21.79;28.53;97341.66;4884748;29;1139;-77
2023/06/11 06:47:42;;;;;;;;;;;;;;;21.78;28.50;97339.28;4894717;29;1306;-77
2023/06/11 06:50:08;;;;;;;;;;;;;;;21.61;28.68;97335.88;4907024;29;1197;-76
2023/06/11 06:52:35;;;;;;;;;;;;;;;21.62;28.40;97340.28;4888335;29;1227;-76
2023/06/11 06:55:01;;;;;;;;;;;;;;;21.68;28.51;97341.25;4831860;29;1269;-77
2023/06/11 06:57:27;;;;;;;;;;;;;;;21.59;28.26;97327.81;4832925;29;1087;-77
2023/06/11 06:59:53;;;;;;;;;;;;;;;21.85;28.08;97339.78;4832317;29;1312;-77
2023/06/11 07:02:18;;;;;;;;;;;;;;;21.75;28.22;97340.19;4814679;29;1322;-77
2023/06/11 07:04:44;;;;;;;;;;;;;;;21.81;28.05;97338.34;4829128;29;1976;-77
2023/06/11 07:07:10;;;;;;;;;;;;;;;21.62;28.39;97343.13;4829776;29;1216;-77
2023/06/11 07:09:36;;;;;;;;;;;;;;;21.63;28.47;97350.34;4844210;29;1123;-77
2023/06/11 07:12:01;;;;;;;;;;;;;;;21.78;28.20;97334.41;4853222;29;1329;-76
2023/06/11 07:14:28;;;;;;;;;;;;;;;21.70;28.14;97338.75;4869394;29;1236;-77
2023/06/11 07:16:54;;;;;;;;;;;;;;;21.54;28.46;97338.94;4865999;29;1312;-77
2023/06/11 07:19:19;;;;;;;;;;;;;;;22.20;28.01;97336.09;4865957;29;1129;-76
2023/06/11 07:21:45;;;;;;;;;;;;;;;22.31;27.77;97325.09;4883841;29;941;-76
2023/06/11 07:24:11;;;;;;;;;;;;;;;22.49;27.60;97335.75;4881223;29;1903;-77
2023/06/11 07:26:38;;;;;;;;;;;;;;;22.07;28.15;97330.47;4879888;29;1198;-78
2023/06/11 07:29:04;;;;;;;;;;;;;;;21.90;28.56;97329.91;4899815;29;1054;-77
2023/06/11 07:31:29;;;;;;;;;;;;;;;21.84;28.57;97326.88;4929037;29;983;-77
2023/06/11 07:33:55;;;;;;;;;;;;;;;21.84;28.28;97326.88;4905798;29;1050;-76
2023/06/11 07:36:21;;;;;;;;;;;;;;;21.90;28.17;97320.63;4906105;29;1248;-77
2023/06/11 07:38:47;;;;;;;;;;;;;;;21.74;28.62;97333.75;4934450;29;1840;-77
2023/06/11 07:41:14;;;;;;;;;;;;;;;21.50;28.89;97332.63;4958385;28;1446;-77
2023/06/11 07:43:40;;;;;;;;;;;;;;;21.68;28.54;97329.94;4961963;28;1903;-77
2023/06/11 07:46:09;;;;;;;;;;;;;;;21.55;29.07;97332.84;4948254;28;1101;-76
2023/06/11 07:48:35;;;;;;;;;;;;;;;21.70;28.68;97333.09;4947094;28;1165;-76
2023/06/11 07:51:01;;;;;;;;;;;;;;;21.78;28.34;97323.09;4963766;28;873;-77
2023/06/11 07:53:28;;;;;;;;;;;;;;;21.49;28.81;97339.53;4962763;28;1171;-77
2023/06/11 07:55:56;;;;;;;;;;;;;;;21.83;28.39;97342.31;5010450;28;1266;-76
2023/06/11 07:58:22;;;;;;;;;;;;;;;21.87;27.99;97347.84;5020976;28;1005;-77
2023/06/11 08:00:48;;;;;;;;;;;;;;;21.54;28.53;97353.09;5021364;28;997;-77
2023/06/11 08:03:14;;;;;;;;;;;;;;;21.91;27.91;97342.03;5020998;28;1902;-77
2023/06/11 08:05:39;;;;;;;;;;;;;;;21.66;28.23;97338.13;5039688;28;925;-76
2023/06/11 08:08:05;;;;;;;;;;;;;;;21.73;28.53;97337.84;5039832;28;953;-76
2023/06/11 08:10:32;;;;;;;;;;;;;;;21.63;28.59;97350.34;5021502;28;1140;-77
2023/06/11 08:12:57;;;;;;;;;;;;;;;21.67;28.37;97353.84;5020727;28;1003;-77
2023/06/11 08:15:23;;;;;;;;;;;;;;;21.74;28.65;97350.75;5021000;28;1021;-77
2023/06/11 08:17:49;;;;;;;;;;;;;;;22.06;28.09;97343.06;4978538;28;937;-77
2023/06/11 08:20:16;;;;;;;;;;;;;;;22.21;27.89;97351.81;4978594;28;912;-77
2023/06/11 08:22:42;;;;;;;;;;;;;;;22.19;27.79;97345.84;4978167;28;1898;-77
2023/06/11 08:25:09;;;;;;;;;;;;;;;21.96;28.16;97349.91;4942907;29;1580;-76
2023/06/11 08:27:35;;;;;;;;;;;;;;;21.89;28.47;97350.22;4927416;29;1440;-75
2023/06/11 08:30:00;;;;;;;;;;;;;;;21.98;28.29;97355.94;4942901;29;1175;-77
2023/06/11 08:32:26;;;;;;;;;;;;;;;21.75;28.35;97354.34;4943343;29;1057;-77
2023/06/11 08:34:51;;;;;;;;;;;;;;;21.69;28.47;97348.50;4942578;29;850;-77
2023/06/11 08:37:17;;;;;;;;;;;;;;;21.77;28.58;97349.81;4958921;29;947;-77
2023/06/11 08:39:43;;;;;;;;;;;;;;;21.69;28.46;97347.72;4958304;29;1306;-77
2023/06/11 08:42:08;;;;;;;;;;;;;;;21.78;28.34;97350.63;4959007;29;1113;-77
2023/06/11 08:44:34;;;;;;;;;;;;;;;21.59;28.71;97361.00;4942631;29;1910;-77
2023/06/11 08:47:01;;;;;;;;;;;;;;;21.67;28.84;97356.69;4942566;29;931;-77
2023/06/11 08:49:27;;;;;;;;;;;;;;;21.52;28.87;97350.75;4972312;28;845;-76
2023/06/11 08:51:53;;;;;;;;;;;;;;;21.67;28.65;97353.84;4997450;28;916;-77
2023/06/11 08:54:19;;;;;;;;;;;;;;;21.92;28.25;97343.63;4980945;28;1120;-77
2023/06/11 08:56:44;;;;;;;;;;;;;;;21.99;28.29;97349.00;5015136;28;885;-77
2023/06/11 08:59:10;;;;;;;;;;;;;;;21.78;28.46;97348.56;5020858;28;778;-77
2023/06/11 09:01:36;;;;;;;;;;;;;;;21.73;28.33;97343.50;5004435;28;1342;-77
2023/06/11 09:04:01;;;;;;;;;;;;;;;21.89;28.33;97351.00;5020850;28;2250;-76
2023/06/11 09:06:28;;;;;;;;;;;;;;;21.81;28.39;97350.50;5021651;28;908;-77
2023/06/11 09:09:00;;;;;;;;;;;;;;;21.71;28.57;97345.19;5021173;28;942;-77
2023/06/11 09:11:33;;;;;;;;;;;;;;;21.54;28.76;97353.09;5005205;28;1432;-77
2023/06/11 09:13:58;;;;;;;;;;;;;;;22.11;28.24;97353.81;5020986;28;771;-77
2023/06/11 09:16:24;;;;;;;;;;;;;;;22.17;28.31;97351.94;5020783;28;887;-77
2023/06/11 09:18:49;;;;;;;;;;;;;;;22.07;28.40;97347.47;5021011;28;934;-77
2023/06/11 09:21:15;;;;;;;;;;;;;;;21.96;28.50;97344.25;5021221;28;957;-77
2023/06/11 09:23:41;;;;;;;;;;;;;;;22.09;28.29;97348.59;4986433;28;1981;-77
2023/06/11 09:26:06;;;;;;;;;;;;;;;21.68;29.10;97349.75;5038979;28;815;-76
2023/06/11 09:28:33;;;;;;;;;;;;;;;21.67;29.22;97356.69;5037675;28;898;-77
2023/06/11 09:30:59;;;;;;;;;;;;;;;21.88;28.48;97354.28;5004734;28;1165;-77
2023/06/11 09:33:25;;;;;;;;;;;;;;;21.67;29.05;97345.34;5019813;28;834;-76
2023/06/11 09:35:51;;;;;;;;;;;;;;;21.90;28.68;97351.78;5004660;28;842;-77
2023/06/11 09:38:17;;;;;;;;;;;;;;;21.91;28.59;97337.16;5037716;28;959;-77
2023/06/11 09:40:46;;;;;;;;;;;;;;;21.94;28.41;97352.44;5026669;28;1024;-77
2023/06/11 09:43:12;;;;;;;;;;;;;;;21.63;28.80;97350.34;5003606;28;1902;-77
2023/06/11 09:45:38;;;;;;;;;;;;;;;21.68;28.89;97357.47;5037143;28;806;-77
2023/06/11 09:48:04;;;;;;;;;;;;;;;21.73;28.49;97343.50;5037565;28;931;-77
2023/06/11 09:50:29;;;;;;;;;;;;;;;21.91;28.48;97347.69;5036370;28;1069;-77
2023/06/11 09:52:55;;;;;;;;;;;;;;;21.76;28.75;97348.25;4996059;28;969;-77
2023/06/11 09:55:21;;;;;;;;;;;;;;;21.70;28.42;97350.06;4979604;28;1027;-77
2023/06/11 09:57:47;;;;;;;;;;;;;;;21.59;28.80;97350.47;4979850;28;1118;-78
2023/06/11 10:00:13;;;;;;;;;;;;;;;21.70;28.56;97340.78;4979491;28;1121;-77
2023/06/11 10:02:38;;;;;;;;;;;;;;;21.68;28.56;97341.25;4963740;28;1894;-77
2023/06/11 10:05:06;;;;;;;;;;;;;;;21.67;28.35;97339.69;4963263;28;952;-77
2023/06/11 10:07:33;;;;;;;;;;;;;;;21.74;28.59;97339.41;4980133;28;979;-77
2023/06/11 10:09:58;;;;;;;;;;;;;;;21.77;28.24;97341.34;4979591;28;1324;-77
2023/06/11 10:12:24;;;;;;;;;;;;;;;21.76;28.34;97336.09;4979960;28;1108;-77
2023/06/11 10:14:51;;;;;;;;;;;;;;;21.81;28.30;97329.84;4995797;28;1126;-77
2023/06/11 10:17:16;;;;;;;;;;;;;;;21.75;28.24;97331.69;4947687;28;1254;-77
2023/06/11 10:19:42;;;;;;;;;;;;;;;21.52;28.92;97341.47;4979385;28;904;-77
2023/06/11 10:22:08;;;;;;;;;;;;;;;21.82;28.31;97340.72;4954485;28;1175;-77
2023/06/11 10:24:34;;;;;;;;;;;;;;;21.71;28.28;97339.53;4985883;28;1982;-77
2023/06/11 10:27:07;;;;;;;;;;;;;;;21.94;28.38;97329.78;4999286;28;984;-78
2023/06/11 10:29:39;;;;;;;;;;;;;;;22.29;27.87;97339.75;4979606;28;1179;-77
2023/06/11 10:32:17;;;;;;;;;;;;;;;22.40;28.01;97332.88;4979735;28;932;-77
2023/06/11 10:34:43;;;;;;;;;;;;;;;22.18;28.11;97333.72;4979622;28;892;-77
2023/06/11 10:37:10;;;;;;;;;;;;;;;22.03;28.57;97332.66;4979645;28;940;-77
2023/06/11 10:39:35;;;;;;;;;;;;;;;21.90;28.61;97324.25;4979174;28;1229;-77
2023/06/11 10:42:02;;;;;;;;;;;;;;;22.07;28.06;97334.13;4979481;28;959;-77
2023/06/11 10:44:29;;;;;;;;;;;;;;;22.02;28.49;97325.41;4963638;28;1985;-77
2023/06/11 10:46:55;;;;;;;;;;;;;;;21.82;28.38;97329.41;4963710;28;888;-77
2023/06/11 10:49:25;;;;;;;;;;;;;;;21.87;28.70;97318.75;4979485;28;962;-77
2023/06/11 10:51:51;;;;;;;;;;;;;;;21.65;28.62;97319.53;4979794;28;914;-78
2023/06/11 10:54:26;;;;;;;;;;;;;;;21.62;28.83;97320.47;4982329;28;1125;-77
2023/06/11 10:56:52;;;;;;;;;;;;;;;21.75;28.79;97318.34;4999386;28;985;-77
2023/06/11 10:59:18;;;;;;;;;;;;;;;21.80;28.59;97320.56;4982777;28;923;-77
2023/06/11 11:01:43;;;;;;;;;;;;;;;21.70;28.70;97321.75;4999178;28;935;-77
2023/06/11 11:04:09;;;;;;;;;;;;;;;21.62;28.57;97320.47;4998438;28;2000;-77
2023/06/11 11:06:36;;;;;;;;;;;;;;;21.62;28.70;97331.00;5009235;28;809;-77
2023/06/11 11:09:02;;;;;;;;;;;;;;;21.57;28.66;97340.88;5035652;28;946;-77
2023/06/11 11:11:28;;;;;;;;;;;;;;;21.82;28.22;97323.75;5035696;28;746;-77
2023/06/11 11:13:54;;;;;;;;;;;;;;;21.46;28.48;97324.28;5036530;28;723;-77
2023/06/11 11:16:20;;;;;;;;;;;;;;;22.03;28.32;97330.63;5035569;28;928;-77
2023/06/11 11:18:46;;;;;;;;;;;;;;;22.31;27.99;97331.56;5036602;28;818;-77
2023/06/11 11:21:12;;;;;;;;;;;;;;;22.24;28.00;97326.19;5039439;28;872;-77
2023/06/11 11:23:37;;;;;;;;;;;;;;;22.43;27.60;97320.56;5039399;28;1914;-77
2023/06/11 11:26:04;;;;;;;;;;;;;;;21.95;28.28;97325.69;5029801;28;1133;-77
2023/06/11 11:28:31;;;;;;;;;;;;;;;21.88;28.44;97325.97;5003195;28;847;-77
2023/06/11 11:30:57;;;;;;;;;;;;;;;22.02;28.28;97342.41;5020310;28;989;-77
2023/06/11 11:33:23;;;;;;;;;;;;;;;21.74;28.56;97345.06;5019038;28;928;-77
2023/06/11 11:35:49;;;;;;;;;;;;;;;21.92;28.42;97350.09;5021041;28;855;-77
2023/06/11 11:38:15;;;;;;;;;;;;;;;21.97;28.11;97351.53;5019070;28;995;-77
2023/06/11 11:40:40;;;;;;;;;;;;;;;22.03;27.97;97341.16;5020791;28;1078;-77
2023/06/11 11:43:07;;;;;;;;;;;;;;;21.53;28.98;97343.03;5020780;28;1921;-77
2023/06/11 11:45:33;;;;;;;;;;;;;;;21.74;28.19;97328.09;5020104;28;919;-77
2023/06/11 11:47:59;;;;;;;;;;;;;;;21.56;28.99;97316.66;5020132;28;987;-76
2023/06/11 11:50:30;;;;;;;;;;;;;;;21.69;28.37;97314.53;5002719;28;934;-77
2023/06/11 11:53:03;;;;;;;;;;;;;;;21.62;28.56;97331.78;5020154;28;865;-77
2023/06/11 11:55:37;;;;;;;;;;;;;;;21.93;28.14;97337.50;5002889;28;824;-77
2023/06/11 11:58:06;;;;;;;;;;;;;;;21.49;28.74;97337.50;5019126;28;888;-77
2023/06/11 12:00:32;;;;;;;;;;;;;;;21.99;28.24;97326.34;5019072;28;976;-77
2023/06/11 12:02:58;;;;;;;;;;;;;;;22.30;27.66;97330.00;5018765;28;1902;-77
2023/06/11 12:05:27;;;;;;;;;;;;;;;22.28;27.49;97329.69;5020616;28;907;-77
2023/06/11 12:07:52;;;;;;;;;;;;;;;22.23;27.63;97327.44;5019891;28;940;-77
2023/06/11 12:10:18;;;;;;;;;;;;;;;22.14;27.71;97323.78;5018752;28;1026;-77
2023/06/11 12:12:44;;;;;;;;;;;;;;;22.03;28.03;97315.69;5017830;28;932;-76
2023/06/11 12:15:09;;;;;;;;;;;;;;;22.03;28.07;97312.84;5018387;28;794;-77
2023/06/11 12:17:36;;;;;;;;;;;;;;;21.81;28.15;97302.34;5019069;28;898;-77
2023/06/11 12:20:03;;;;;;;;;;;;;;;22.16;27.72;97312.75;5018890;28;904;-77
2023/06/11 12:22:30;;;;;;;;;;;;;;;21.78;28.14;97294.75;5020345;28;899;-77
2023/06/11 12:24:55;;;;;;;;;;;;;;;21.93;28.19;97291.38;5019720;28;1922;-77
2023/06/11 12:27:22;;;;;;;;;;;;;;;21.98;27.99;97290.78;5019007;28;766;-78
2023/06/11 12:29:53;;;;;;;;;;;;;;;21.79;28.03;97284.22;5019237;28;839;-77
2023/06/11 12:32:21;;;;;;;;;;;;;;;21.66;28.57;97287.16;5017837;28;929;-77
2023/06/11 12:34:47;;;;;;;;;;;;;;;21.75;28.22;97298.50;5018957;28;833;-77
2023/06/11 12:37:13;;;;;;;;;;;;;;;21.82;28.17;97306.75;5017378;28;917;-77
2023/06/11 12:39:43;;;;;;;;;;;;;;;21.76;28.27;97313.44;5019049;28;1037;-77
2023/06/11 12:42:13;;;;;;;;;;;;;;;21.93;28.16;97316.88;5019736;28;906;-77
2023/06/11 12:44:41;;;;;;;;;;;;;;;21.78;28.30;97308.91;5018241;28;1910;-77
2023/06/11 12:47:06;;;;;;;;;;;;;;;21.70;28.25;97318.94;5019532;28;908;-77
2023/06/11 12:49:32;;;;;;;;;;;;;;;21.67;28.31;97317.03;5019594;28;856;-76
2023/06/11 12:51:58;;;;;;;;;;;;;;;21.28;28.79;97324.09;5019821;28;951;-77
2023/06/11 12:54:24;;;;;;;;;;;;;;;21.77;28.27;97321.50;5017810;28;898;-77
2023/06/11 12:56:50;;;;;;;;;;;;;;;21.74;28.02;97305.44;5019316;28;808;-77